createdAt,value
2019-03-10T00:00:35.834Z,99.90
2019-03-10T00:03:05.648Z,99.90
2019-03-10T00:05:35.053Z,99.90
2019-03-10T00:08:04.559Z,99.90
2019-03-10T00:10:33.938Z,99.90
2019-03-10T00:13:03.325Z,99.90
2019-03-10T00:15:32.924Z,99.90
2019-03-10T00:18:02.325Z,99.90
2019-03-10T00:20:31.705Z,99.90
2019-03-10T00:23:01.072Z,99.90
2019-03-10T00:25:30.505Z,99.90
2019-03-10T00:27:59.891Z,99.90
2019-03-10T00:30:29.328Z,99.90
2019-03-10T00:32:58.720Z,99.90
2019-03-10T00:35:28.109Z,99.90
2019-03-10T00:37:57.633Z,99.90
2019-03-10T00:40:51.240Z,99.90
2019-03-10T00:43:32.324Z,99.90
2019-03-10T00:46:21.291Z,99.90
2019-03-10T00:49:16.527Z,99.90
2019-03-10T00:52:01.158Z,99.90
2019-03-10T00:54:30.633Z,99.90
2019-03-10T00:57:00.157Z,99.90
2019-03-10T00:59:29.614Z,99.90
2019-03-10T01:01:58.986Z,99.90
2019-03-10T01:04:28.435Z,99.90
2019-03-10T01:06:57.937Z,99.90
2019-03-10T01:09:27.351Z,99.90
2019-03-10T01:11:56.873Z,99.90
2019-03-10T01:14:26.259Z,99.90
2019-03-10T01:16:56.460Z,99.90
2019-03-10T01:19:26.638Z,99.90
2019-03-10T01:21:58.116Z,99.90
2019-03-10T01:24:29.542Z,99.90
2019-03-10T01:26:58.947Z,99.90
2019-03-10T01:29:28.373Z,99.90
2019-03-10T01:32:12.994Z,99.90
2019-03-10T01:34:45.452Z,99.90
2019-03-10T01:37:14.811Z,99.90
2019-03-10T01:39:44.213Z,99.90
2019-03-10T01:42:13.617Z,99.90
2019-03-10T01:44:42.971Z,99.90
2019-03-10T01:47:12.368Z,99.90
2019-03-10T01:49:41.759Z,99.90
2019-03-10T01:52:11.151Z,99.90
2019-03-10T01:54:40.586Z,99.90
2019-03-10T01:57:09.968Z,99.90
2019-03-10T01:59:39.341Z,99.90
2019-03-10T02:02:08.745Z,99.90
2019-03-10T02:04:38.147Z,99.90
2019-03-10T02:07:07.581Z,99.90
2019-03-10T02:09:37.418Z,99.90
2019-03-10T02:12:08.543Z,99.90
2019-03-10T02:14:37.959Z,99.90
2019-03-10T02:17:10.359Z,99.90
2019-03-10T02:19:39.815Z,99.90
2019-03-10T02:22:09.192Z,99.90
2019-03-10T02:24:38.653Z,99.90
2019-03-10T02:27:08.104Z,99.90
2019-03-10T02:29:37.481Z,99.90
2019-03-10T02:32:06.985Z,99.90
2019-03-10T02:34:38.089Z,99.90
2019-03-10T02:37:07.580Z,99.90
2019-03-10T02:39:37.273Z,99.90
2019-03-10T02:42:06.987Z,99.90
2019-03-10T02:44:36.362Z,99.90
2019-03-10T02:47:05.813Z,99.90
2019-03-10T02:49:35.183Z,99.90
2019-03-10T02:52:04.889Z,99.90
2019-03-10T02:54:34.490Z,99.90
2019-03-10T02:57:04.245Z,99.90
2019-03-10T02:59:33.744Z,99.90
2019-03-10T03:02:03.217Z,99.90
2019-03-10T03:04:32.546Z,99.90
2019-03-10T03:07:01.919Z,99.90
2019-03-10T03:09:31.313Z,99.90
2019-03-10T03:12:00.763Z,99.90
2019-03-10T03:14:30.210Z,99.90
2019-03-10T03:16:59.576Z,99.90
2019-03-10T03:19:28.956Z,99.90
2019-03-10T03:21:58.251Z,99.90
2019-03-10T03:24:27.640Z,99.90
2019-03-10T03:26:57.002Z,99.90
2019-03-10T03:29:26.391Z,99.90
2019-03-10T03:31:55.752Z,99.90
2019-03-10T03:34:25.145Z,99.90
2019-03-10T03:36:54.518Z,99.90
2019-03-10T03:39:29.843Z,99.90
2019-03-10T03:41:59.253Z,99.90
2019-03-10T03:44:28.678Z,99.90
2019-03-10T03:46:58.161Z,99.90
2019-03-10T03:49:27.577Z,99.90
2019-03-10T03:51:56.973Z,99.90
2019-03-10T03:54:26.358Z,99.90
2019-03-10T03:56:55.795Z,99.90
2019-03-10T03:59:25.157Z,99.90
2019-03-10T04:01:59.027Z,99.90
2019-03-10T04:04:28.392Z,99.90
2019-03-10T04:06:57.791Z,99.90
2019-03-10T04:09:27.088Z,99.90
2019-03-10T04:11:56.453Z,99.90
2019-03-10T04:14:25.841Z,99.90
2019-03-10T04:16:55.193Z,99.90
2019-03-10T04:19:24.582Z,99.90
2019-03-10T04:21:54.011Z,99.90
2019-03-10T04:24:23.385Z,99.90
2019-03-10T04:26:52.793Z,99.90
2019-03-10T04:29:22.174Z,99.90
2019-03-10T04:31:51.543Z,99.90
2019-03-10T04:34:20.942Z,99.90
2019-03-10T04:36:50.325Z,99.90
2019-03-10T04:39:19.763Z,99.90
2019-03-10T04:41:49.138Z,99.90
2019-03-10T04:44:18.494Z,99.90
2019-03-10T04:46:47.877Z,99.90
2019-03-10T04:49:17.309Z,99.90
2019-03-10T04:51:46.742Z,99.90
2019-03-10T04:54:17.744Z,99.90
2019-03-10T04:56:48.757Z,99.90
2019-03-10T04:59:18.125Z,99.90
2019-03-10T05:01:47.491Z,99.90
2019-03-10T05:04:16.867Z,99.90
2019-03-10T05:06:46.222Z,99.90
2019-03-10T05:09:15.608Z,99.90
2019-03-10T05:11:44.965Z,99.90
2019-03-10T05:14:14.351Z,99.90
2019-03-10T05:16:43.714Z,99.90
2019-03-10T05:19:13.111Z,99.90
2019-03-10T05:21:42.480Z,99.90
2019-03-10T05:24:11.876Z,99.90
2019-03-10T05:26:44.334Z,99.90
2019-03-10T05:29:13.711Z,99.90
2019-03-10T05:31:43.080Z,99.90
2019-03-10T05:34:12.644Z,99.90
2019-03-10T05:36:42.023Z,99.90
2019-03-10T05:39:11.383Z,99.90
2019-03-10T05:41:40.761Z,99.90
2019-03-10T05:44:10.122Z,99.90
2019-03-10T05:46:39.493Z,99.90
2019-03-10T05:49:08.857Z,99.90
2019-03-10T05:51:38.246Z,99.90
2019-03-10T05:54:07.621Z,99.90
2019-03-10T05:56:37.010Z,99.90
2019-03-10T05:59:06.375Z,99.90
2019-03-10T06:01:35.779Z,99.90
2019-03-10T06:04:05.215Z,99.90
2019-03-10T06:06:34.593Z,99.90
2019-03-10T06:09:05.611Z,99.90
2019-03-10T06:11:34.976Z,99.90
2019-03-10T06:14:04.348Z,99.90
2019-03-10T06:16:33.715Z,99.90
2019-03-10T06:19:03.113Z,99.90
2019-03-10T06:21:32.471Z,99.90
2019-03-10T06:24:01.919Z,99.90
2019-03-10T06:26:31.303Z,99.90
2019-03-10T06:29:00.731Z,99.90
2019-03-10T06:31:30.087Z,99.90
2019-03-10T06:33:59.466Z,99.90
2019-03-10T06:36:28.840Z,99.90
2019-03-10T06:38:58.201Z,99.90
2019-03-10T06:41:27.585Z,99.90
2019-03-10T06:43:56.952Z,99.90
2019-03-10T06:46:26.262Z,99.90
2019-03-10T06:48:55.622Z,99.90
2019-03-10T06:51:24.993Z,99.90
2019-03-10T06:53:54.364Z,99.90
2019-03-10T06:56:23.769Z,99.90
2019-03-10T06:58:53.142Z,99.90
2019-03-10T07:01:22.512Z,99.90
2019-03-10T07:03:51.897Z,99.90
2019-03-10T07:06:21.254Z,99.90
2019-03-10T07:08:50.628Z,99.90
2019-03-10T07:11:20.017Z,99.90
2019-03-10T07:13:49.395Z,99.90
2019-03-10T07:16:19.133Z,99.90
2019-03-10T07:18:48.541Z,99.90
2019-03-10T07:21:17.904Z,99.90
2019-03-10T07:23:47.287Z,99.90
2019-03-10T07:26:16.650Z,99.90
2019-03-10T07:28:59.929Z,99.90
2019-03-10T07:31:46.196Z,99.90
2019-03-10T07:34:22.691Z,99.90
2019-03-10T07:37:02.590Z,99.90
2019-03-10T07:39:36.088Z,99.90
2019-03-10T07:42:07.099Z,99.90
2019-03-10T07:44:38.162Z,99.90
2019-03-10T07:47:09.221Z,99.90
2019-03-10T07:49:43.232Z,99.90
2019-03-10T07:52:20.715Z,99.90
2019-03-10T07:55:11.771Z,99.90
2019-03-10T07:57:58.907Z,99.90
2019-03-10T08:00:38.797Z,99.90
2019-03-10T08:03:12.527Z,99.90
2019-03-10T08:06:01.927Z,99.90
2019-03-10T08:08:47.920Z,99.90
2019-03-10T08:11:21.738Z,99.90
2019-03-10T08:13:55.197Z,99.90
2019-03-10T08:16:38.177Z,99.90
2019-03-10T08:19:09.195Z,99.90
2019-03-10T08:21:46.241Z,99.90
2019-03-10T08:24:17.259Z,99.90
2019-03-10T08:26:53.813Z,99.90
2019-03-10T08:29:30.899Z,99.90
2019-03-10T08:32:13.507Z,99.90
2019-03-10T08:34:50.500Z,99.90
2019-03-10T08:37:24.255Z,99.90
2019-03-10T08:39:55.276Z,99.90
2019-03-10T08:42:44.707Z,99.90
2019-03-10T08:45:18.961Z,99.90
2019-03-10T08:47:50.011Z,99.90
2019-03-10T08:50:39.100Z,99.90
2019-03-10T08:53:26.565Z,99.90
2019-03-10T08:56:09.311Z,99.90
2019-03-10T08:58:48.919Z,99.90
2019-03-10T09:01:22.628Z,99.90
2019-03-10T09:03:59.450Z,99.90
2019-03-10T09:06:39.363Z,99.90
2019-03-10T09:09:13.162Z,99.90
2019-03-10T09:11:44.167Z,99.90
2019-03-10T09:14:17.975Z,99.90
2019-03-10T09:16:51.544Z,99.90
2019-03-10T09:19:22.592Z,99.90
2019-03-10T09:21:53.601Z,99.90
2019-03-10T09:24:36.564Z,99.90
2019-03-10T09:27:07.620Z,99.90
2019-03-10T09:29:49.422Z,99.90
2019-03-10T09:32:20.435Z,99.90
2019-03-10T09:35:06.570Z,99.90
2019-03-10T09:37:53.755Z,99.90
2019-03-10T09:40:42.858Z,99.90
2019-03-10T09:43:13.873Z,99.90
2019-03-10T09:45:56.912Z,99.90
2019-03-10T09:48:40.074Z,99.90
2019-03-10T09:51:31.037Z,99.90
2019-03-10T09:54:18.295Z,99.90
2019-03-10T09:56:49.325Z,99.90
2019-03-10T09:59:30.175Z,99.90
2019-03-10T10:02:01.250Z,99.90
2019-03-10T10:04:32.284Z,99.90
2019-03-10T10:07:06.284Z,99.90
2019-03-10T10:09:37.317Z,99.90
2019-03-10T10:12:20.205Z,99.90
2019-03-10T10:14:51.271Z,99.90
2019-03-10T10:17:27.766Z,99.90
2019-03-10T10:19:58.900Z,99.90
2019-03-10T10:22:46.479Z,99.90
2019-03-10T10:25:17.551Z,99.90
2019-03-10T10:27:48.666Z,99.90
2019-03-10T10:30:35.007Z,99.90
2019-03-10T10:33:06.046Z,99.90
2019-03-10T10:35:45.861Z,99.90
2019-03-10T10:38:31.845Z,99.90
2019-03-10T10:41:09.126Z,99.90
2019-03-10T10:43:52.295Z,99.90
2019-03-10T10:46:29.314Z,99.90
2019-03-10T10:49:00.407Z,99.90
2019-03-10T10:51:37.108Z,99.90
2019-03-10T10:54:26.133Z,99.90
2019-03-10T10:56:59.903Z,99.90
2019-03-10T10:59:39.650Z,99.90
2019-03-10T11:02:19.335Z,99.90
2019-03-10T11:04:59.147Z,99.90
2019-03-10T11:07:30.153Z,99.90
2019-03-10T11:10:13.051Z,99.90
2019-03-10T11:12:46.518Z,99.90
2019-03-10T11:15:20.355Z,99.90
2019-03-10T11:17:51.368Z,99.90
2019-03-10T11:20:22.390Z,99.90
2019-03-10T11:23:11.469Z,99.90
2019-03-10T11:25:43.067Z,99.90
2019-03-10T11:28:16.774Z,99.90
2019-03-10T11:30:50.572Z,99.90
2019-03-10T11:33:30.261Z,99.90
2019-03-10T11:36:04.325Z,98.50
2019-03-10T11:38:44.050Z,95.40
2019-03-10T11:41:33.807Z,92.50
2019-03-10T11:43:59.783Z,92.60
2019-03-10T11:46:30.961Z,91.60
2019-03-10T11:49:13.563Z,90.90
2019-03-10T11:52:02.644Z,88.20
2019-03-10T11:54:33.598Z,91.30
2019-03-10T11:57:10.929Z,99.90
2019-03-10T11:59:47.744Z,99.90
2019-03-10T12:02:35.302Z,99.90
2019-03-10T12:05:11.652Z,99.90
2019-03-10T12:07:52.160Z,99.90
2019-03-10T12:10:21.757Z,99.90
2019-03-10T12:12:51.115Z,99.90
2019-03-10T12:15:20.598Z,99.90
2019-03-10T12:17:49.959Z,99.90
2019-03-10T12:20:19.443Z,99.90
2019-03-10T12:22:49.018Z,99.90
2019-03-10T12:25:18.404Z,99.90
2019-03-10T12:27:47.812Z,99.90
2019-03-10T12:30:17.273Z,99.90
2019-03-10T12:32:46.949Z,99.90
2019-03-10T12:35:16.438Z,99.90
2019-03-10T12:37:45.799Z,95.30
2019-03-10T12:40:15.413Z,83.70
2019-03-10T12:42:44.797Z,89.30
2019-03-10T12:45:14.169Z,85.00
2019-03-10T12:47:43.570Z,83.90
2019-03-10T12:50:14.076Z,88.00
2019-03-10T12:52:43.483Z,84.70
2019-03-10T12:55:12.913Z,83.50
2019-03-10T12:57:42.332Z,78.00
2019-03-10T13:00:17.645Z,78.10
2019-03-10T13:02:47.143Z,80.00
2019-03-10T13:05:16.762Z,73.40
2019-03-10T13:07:46.145Z,69.00
2019-03-10T13:10:15.514Z,70.50
2019-03-10T13:12:44.902Z,65.80
2019-03-10T13:15:14.451Z,77.30
2019-03-10T13:17:43.908Z,79.20
2019-03-10T13:20:13.445Z,84.60
2019-03-10T13:22:42.842Z,78.90
2019-03-10T13:25:13.366Z,76.30
2019-03-10T13:27:42.822Z,77.10
2019-03-10T13:30:14.199Z,73.00
2019-03-10T13:32:44.672Z,71.20
2019-03-10T13:35:14.457Z,71.90
2019-03-10T13:37:43.891Z,66.60
2019-03-10T13:40:14.621Z,66.40
2019-03-10T13:42:43.982Z,62.00
2019-03-10T13:45:18.055Z,63.40
2019-03-10T13:47:47.560Z,65.80
2019-03-10T13:50:17.322Z,63.50
2019-03-10T13:52:46.638Z,60.20
2019-03-10T13:55:16.087Z,61.90
2019-03-10T13:57:45.484Z,64.60
2019-03-10T14:00:26.338Z,66.80
2019-03-10T14:02:55.928Z,64.30
2019-03-10T14:05:25.322Z,59.40
2019-03-10T14:07:54.778Z,58.20
2019-03-10T14:10:24.224Z,53.70
2019-03-10T14:12:53.621Z,55.50
2019-03-10T14:15:23.055Z,59.70
2019-03-10T14:18:12.065Z,60.80
2019-03-10T14:20:42.158Z,58.80
2019-03-10T14:23:11.540Z,58.40
2019-03-10T14:25:40.919Z,59.00
2019-03-10T14:28:10.283Z,59.60
2019-03-10T14:30:39.679Z,60.00
2019-03-10T14:33:09.129Z,55.90
2019-03-10T14:35:40.141Z,59.30
2019-03-10T14:38:09.514Z,61.70
2019-03-10T14:40:39.056Z,60.00
2019-03-10T14:43:08.489Z,58.30
2019-03-10T14:45:37.941Z,58.10
2019-03-10T14:48:07.391Z,58.90
2019-03-10T14:50:36.820Z,61.30
2019-03-10T14:53:06.829Z,65.40
2019-03-10T14:55:36.213Z,68.90
2019-03-10T14:58:05.641Z,68.00
2019-03-10T15:00:35.046Z,67.30
2019-03-10T15:03:04.518Z,69.80
2019-03-10T15:05:33.884Z,67.10
2019-03-10T15:08:03.346Z,63.90
2019-03-10T15:10:32.703Z,64.60
2019-03-10T15:13:02.157Z,63.80
2019-03-10T15:15:31.575Z,60.20
2019-03-10T15:18:02.820Z,59.70
2019-03-10T15:20:32.032Z,59.50
2019-03-10T15:23:01.410Z,58.70
2019-03-10T15:25:30.803Z,59.00
2019-03-10T15:28:01.807Z,59.30
2019-03-10T15:30:31.258Z,63.60
2019-03-10T15:33:00.618Z,69.10
2019-03-10T15:35:30.015Z,67.90
2019-03-10T15:37:59.395Z,69.60
2019-03-10T15:40:28.777Z,66.70
2019-03-10T15:42:58.216Z,66.70
2019-03-10T15:45:28.092Z,68.10
2019-03-10T15:47:57.839Z,66.90
2019-03-10T15:50:29.410Z,62.20
2019-03-10T15:52:58.857Z,58.10
2019-03-10T15:55:28.257Z,56.30
2019-03-10T15:57:57.620Z,56.70
2019-03-10T16:00:27.960Z,58.30
2019-03-10T16:02:57.474Z,60.00
2019-03-10T16:05:26.942Z,61.40
2019-03-10T16:07:56.375Z,60.70
2019-03-10T16:10:25.765Z,62.00
2019-03-10T16:12:55.130Z,61.70
2019-03-10T16:15:29.574Z,62.40
2019-03-10T16:17:58.958Z,62.10
2019-03-10T16:20:28.409Z,62.70
2019-03-10T16:22:57.755Z,62.50
2019-03-10T16:25:29.162Z,63.30
2019-03-10T16:27:58.539Z,64.70
2019-03-10T16:30:29.053Z,66.20
2019-03-10T16:32:58.455Z,66.90
2019-03-10T16:35:27.821Z,68.10
2019-03-10T16:37:57.210Z,69.00
2019-03-10T16:40:26.574Z,70.20
2019-03-10T16:42:56.067Z,70.50
2019-03-10T16:45:30.839Z,69.80
2019-03-10T16:47:58.742Z,70.30
2019-03-10T16:50:29.061Z,70.70
2019-03-10T16:52:58.522Z,71.40
2019-03-10T16:55:27.972Z,69.00
2019-03-10T16:57:57.342Z,69.90
2019-03-10T17:00:26.725Z,70.00
2019-03-10T17:02:56.083Z,70.60
2019-03-10T17:05:25.607Z,71.50
2019-03-10T17:07:55.047Z,72.90
2019-03-10T17:10:27.494Z,72.60
2019-03-10T17:12:56.926Z,74.00
2019-03-10T17:15:27.727Z,75.20
2019-03-10T17:17:57.247Z,75.90
2019-03-10T17:20:26.689Z,76.90
2019-03-10T17:22:56.216Z,78.30
2019-03-10T17:25:25.607Z,79.40
2019-03-10T17:27:55.044Z,80.00
2019-03-10T17:30:25.711Z,80.40
2019-03-10T17:32:55.471Z,81.90
2019-03-10T17:35:27.294Z,81.60
2019-03-10T17:37:56.938Z,82.20
2019-03-10T17:40:26.682Z,82.50
2019-03-10T17:42:56.735Z,83.70
2019-03-10T17:45:26.886Z,83.50
2019-03-10T17:47:56.296Z,83.00
2019-03-10T17:50:25.843Z,83.20
2019-03-10T17:52:55.233Z,83.80
2019-03-10T17:55:25.582Z,84.00
2019-03-10T17:57:56.578Z,83.80
2019-03-10T18:00:27.883Z,85.00
2019-03-10T18:02:57.948Z,90.30
2019-03-10T18:05:27.493Z,99.90
2019-03-10T18:07:56.882Z,99.90
2019-03-10T18:10:26.326Z,99.90
2019-03-10T18:12:55.879Z,99.90
2019-03-10T18:15:25.460Z,99.90
2019-03-10T18:17:55.033Z,99.90
2019-03-10T18:20:24.751Z,99.90
2019-03-10T18:22:54.110Z,99.90
2019-03-10T18:25:23.778Z,99.90
2019-03-10T18:27:53.297Z,99.90
2019-03-10T18:30:26.641Z,99.90
2019-03-10T18:32:56.041Z,99.90
2019-03-10T18:35:25.460Z,99.90
2019-03-10T18:37:54.931Z,99.90
2019-03-10T18:40:26.396Z,99.90
2019-03-10T18:42:55.868Z,99.90
2019-03-10T18:45:25.302Z,99.90
2019-03-10T18:47:54.700Z,99.90
2019-03-10T18:50:25.529Z,99.90
2019-03-10T18:52:55.023Z,99.90
2019-03-10T18:55:24.863Z,99.90
2019-03-10T18:57:54.266Z,99.90
2019-03-10T19:00:33.071Z,99.90
2019-03-10T19:03:02.470Z,99.90
2019-03-10T19:05:31.861Z,99.90
2019-03-10T19:08:01.300Z,99.90
2019-03-10T19:10:30.688Z,99.90
2019-03-10T19:13:00.043Z,99.90
2019-03-10T19:15:29.494Z,99.90
2019-03-10T19:17:58.928Z,99.90
2019-03-10T19:20:28.332Z,99.90
2019-03-10T19:22:57.903Z,99.90
2019-03-10T19:25:27.297Z,99.90
2019-03-10T19:27:56.668Z,99.90
2019-03-10T19:30:26.047Z,99.90
2019-03-10T19:32:55.455Z,99.90
2019-03-10T19:35:24.935Z,99.90
2019-03-10T19:37:54.398Z,99.90
2019-03-10T19:40:24.441Z,99.90
2019-03-10T19:42:55.448Z,99.90
2019-03-10T19:45:25.182Z,99.90
2019-03-10T19:47:54.644Z,99.90
2019-03-10T19:50:28.097Z,99.90
2019-03-10T19:52:57.690Z,99.90
2019-03-10T19:55:27.112Z,99.90
2019-03-10T19:57:56.560Z,99.90
2019-03-10T20:00:26.241Z,99.90
2019-03-10T20:02:55.832Z,99.90
2019-03-10T20:05:25.212Z,99.90
2019-03-10T20:07:54.720Z,99.90
2019-03-10T20:10:24.575Z,99.90
2019-03-10T20:12:54.124Z,99.90
2019-03-10T20:15:24.581Z,99.90
2019-03-10T20:17:54.019Z,99.90
2019-03-10T20:20:31.537Z,99.90
2019-03-10T20:23:01.376Z,99.90
2019-03-10T20:25:31.054Z,99.90
2019-03-10T20:28:02.123Z,99.90
2019-03-10T20:30:31.554Z,99.90
2019-03-10T20:33:01.163Z,99.90
2019-03-10T20:35:30.641Z,99.90
2019-03-10T20:38:01.759Z,99.90
2019-03-10T20:40:31.293Z,99.90
2019-03-10T20:43:00.691Z,99.90
2019-03-10T20:45:30.157Z,99.90
2019-03-10T20:48:00.025Z,99.90
2019-03-10T20:50:29.519Z,99.90
2019-03-10T20:52:59.190Z,99.90
2019-03-10T20:55:28.632Z,99.90
2019-03-10T20:57:58.209Z,99.90
2019-03-10T21:00:33.821Z,99.90
2019-03-10T21:03:03.211Z,99.90
2019-03-10T21:05:34.399Z,99.90
2019-03-10T21:08:03.802Z,99.90
2019-03-10T21:10:33.277Z,99.90
2019-03-10T21:13:02.650Z,99.90
2019-03-10T21:15:32.039Z,99.90
2019-03-10T21:18:01.428Z,99.90
2019-03-10T21:20:30.847Z,99.90
2019-03-10T21:23:00.230Z,99.90
2019-03-10T21:25:30.858Z,99.90
2019-03-10T21:28:00.219Z,99.90
2019-03-10T21:30:32.098Z,99.90
2019-03-10T21:33:01.574Z,99.90
2019-03-10T21:35:33.453Z,99.90
2019-03-10T21:38:03.287Z,99.90
2019-03-10T21:40:33.735Z,99.90
2019-03-10T21:43:03.187Z,99.90
2019-03-10T21:45:33.299Z,99.90
2019-03-10T21:48:02.746Z,99.90
2019-03-10T21:50:32.129Z,99.90
2019-03-10T21:53:01.517Z,99.90
2019-03-10T21:55:30.894Z,99.90
2019-03-10T21:58:00.292Z,99.90
2019-03-10T22:00:29.676Z,99.90
2019-03-10T22:02:59.053Z,99.90
2019-03-10T22:05:28.434Z,99.90
2019-03-10T22:08:01.018Z,99.90
2019-03-10T22:10:30.710Z,99.90
2019-03-10T22:13:00.882Z,99.90
2019-03-10T22:15:41.124Z,99.90
2019-03-10T22:18:04.230Z,99.90
2019-03-10T22:20:33.660Z,99.90
2019-03-10T22:23:17.430Z,99.90
2019-03-10T22:25:53.178Z,99.90
2019-03-10T22:28:22.568Z,99.90
2019-03-10T22:30:51.988Z,99.90
2019-03-10T22:33:21.415Z,99.90
2019-03-10T22:35:50.790Z,99.90
2019-03-10T22:38:20.174Z,99.90
2019-03-10T22:40:49.544Z,99.90
2019-03-10T22:43:18.928Z,99.90
2019-03-10T22:45:48.281Z,99.90
2019-03-10T22:48:17.665Z,99.90
2019-03-10T22:50:47.038Z,99.90
2019-03-10T22:53:16.470Z,99.90
2019-03-10T22:55:45.877Z,99.90
2019-03-10T22:58:15.294Z,99.90
2019-03-10T23:00:46.361Z,99.90
2019-03-10T23:03:17.028Z,99.90
2019-03-10T23:05:46.419Z,99.90
2019-03-10T23:08:15.796Z,99.90
2019-03-10T23:10:45.276Z,99.90
2019-03-10T23:13:14.677Z,99.90
2019-03-10T23:15:44.120Z,99.90
2019-03-10T23:18:13.502Z,99.90
2019-03-10T23:20:42.954Z,99.90
2019-03-10T23:23:12.360Z,99.90
2019-03-10T23:25:41.727Z,99.90
2019-03-10T23:28:11.185Z,99.90
2019-03-10T23:30:40.622Z,99.90
2019-03-10T23:33:09.940Z,99.90
2019-03-10T23:35:39.493Z,99.90
2019-03-10T23:38:08.951Z,99.90
2019-03-10T23:40:38.340Z,99.90
2019-03-10T23:43:07.791Z,99.90
2019-03-10T23:45:37.234Z,99.90
2019-03-10T23:48:06.689Z,99.90
2019-03-10T23:50:36.076Z,99.90
2019-03-10T23:53:05.451Z,99.90
2019-03-10T23:55:34.830Z,99.90
2019-03-10T23:58:04.290Z,99.90
